Time;durP1;ratioP1;P1;durP2;ratioP2;P2;SDS_P1;SDS_P2;PMS_P1;PMS_P2;Temp;Humidity;BMP_temperature;BMP_pressure;BME280_temperature;BME280_humidity;BME280_pressure;Samples;Min_cycle;Max_cycle;Signal;HPM_P1;HPM_P2
2021/05/09 00:01:31;;;;;;;10.23;7.00;;;;;;;16.05;62.31;100644.28;5069880;28;20161;-83
2021/05/09 00:03:58;;;;;;;11.88;6.93;;;;;;;16.04;62.28;100634.53;5071409;28;20024;-83
2021/05/09 00:06:25;;;;;;;8.02;6.90;;;;;;;15.99;62.10;100628.53;5071057;28;20048;-83
2021/05/09 00:08:52;;;;;;;12.10;7.22;;;;;;;15.98;62.16;100637.50;5071220;28;20398;-83
2021/05/09 00:11:19;;;;;;;10.88;6.85;;;;;;;15.93;62.37;100624.34;5070140;28;20095;-84
2021/05/09 00:13:46;;;;;;;12.98;6.55;;;;;;;15.91;62.32;100630.69;5071050;28;20032;-84
2021/05/09 00:16:13;;;;;;;13.32;8.05;;;;;;;15.89;62.03;100630.75;5071291;28;20115;-85
2021/05/09 00:18:40;;;;;;;10.98;7.40;;;;;;;15.85;62.13;100624.69;5070859;28;20016;-83
2021/05/09 00:21:06;;;;;;;10.07;7.10;;;;;;;15.80;62.07;100620.44;5071178;28;20032;-84
2021/05/09 00:23:33;;;;;;;10.38;6.65;;;;;;;15.76;62.36;100624.22;5071257;28;20082;-84
2021/05/09 00:26:00;;;;;;;8.95;6.90;;;;;;;15.71;62.43;100618.22;5070198;28;20028;-85
2021/05/09 00:28:27;;;;;;;10.30;7.00;;;;;;;15.63;62.17;100614.06;5070760;28;20028;-84
2021/05/09 00:30:54;;;;;;;9.30;6.18;;;;;;;15.57;62.25;100613.50;5070974;28;20387;-86
2021/05/09 00:33:20;;;;;;;10.02;6.40;;;;;;;15.51;62.52;100611.94;5070848;28;20044;-85
2021/05/09 00:35:47;;;;;;;8.30;6.57;;;;;;;15.46;62.79;100604.13;5070868;28;20052;-85
2021/05/09 00:38:14;;;;;;;11.65;6.95;;;;;;;15.46;62.90;100597.94;5070950;28;20028;-84
2021/05/09 00:40:41;;;;;;;10.93;6.97;;;;;;;15.42;62.91;100599.88;5070194;28;20047;-84
2021/05/09 00:43:07;;;;;;;11.82;7.10;;;;;;;15.39;62.80;100592.00;5070384;28;20032;-85
2021/05/09 00:45:34;;;;;;;11.07;6.55;;;;;;;15.35;62.63;100590.41;5070490;28;20039;-85
2021/05/09 00:48:01;;;;;;;9.30;6.40;;;;;;;15.32;62.90;100585.22;5070666;28;20024;-84
2021/05/09 00:50:28;;;;;;;12.10;6.38;;;;;;;15.26;63.17;100590.81;5070408;28;20086;-86
2021/05/09 00:52:57;;;;;;;14.30;5.93;;;;;;;15.24;63.30;100582.00;5070443;28;20079;-85
2021/05/09 00:55:24;;;;;;;9.95;5.80;;;;;;;15.23;63.26;100580.25;5070867;28;20021;-84
2021/05/09 00:57:53;;;;;;;9.60;5.72;;;;;;;15.22;63.16;100575.88;5070755;28;20106;-85
2021/05/09 01:00:20;;;;;;;6.10;5.30;;;;;;;15.23;63.06;100577.59;5070485;28;20024;-85
2021/05/09 01:02:47;;;;;;;8.50;5.68;;;;;;;15.18;63.16;100572.47;5070227;28;20055;-84
2021/05/09 01:05:15;;;;;;;6.70;5.15;;;;;;;14.84;64.18;100569.44;5070763;28;20542;-85
2021/05/09 01:07:42;;;;;;;15.00;6.32;;;;;;;14.76;64.26;100566.22;5070693;28;20093;-86
2021/05/09 01:10:12;;;;;;;11.20;6.18;;;;;;;14.70;64.58;100555.81;5070441;28;20024;-84
2021/05/09 01:12:39;;;;;;;11.55;6.53;;;;;;;14.64;64.56;100564.91;5070609;28;20024;-87
2021/05/09 01:15:07;;;;;;;12.85;7.40;;;;;;;14.61;64.66;100557.03;5069777;28;20039;-85
2021/05/09 01:17:35;;;;;;;6.65;5.78;;;;;;;14.82;63.84;100555.31;5070370;28;20379;-85
2021/05/09 01:20:22;;;;;;;10.15;5.88;;;;;;;14.82;63.96;100554.44;5070211;28;20028;-84
2021/05/09 01:22:49;;;;;;;8.80;5.97;;;;;;;14.81;63.89;100545.56;5068911;28;20058;-85
2021/05/09 01:25:15;;;;;;;9.60;6.10;;;;;;;14.52;64.69;100539.63;5069909;28;20036;-84
2021/05/09 01:27:42;;;;;;;10.27;5.93;;;;;;;14.44;64.97;100541.72;5069951;28;20050;-85
2021/05/09 01:30:10;;;;;;;10.00;5.57;;;;;;;14.59;64.64;100534.03;5070114;28;20040;-84
2021/05/09 01:32:37;;;;;;;8.55;6.05;;;;;;;14.68;64.05;100536.38;5070438;28;20081;-84
2021/05/09 01:35:05;;;;;;;11.93;6.30;;;;;;;14.66;64.47;100527.56;5070439;28;20033;-84
2021/05/09 01:37:32;;;;;;;7.97;5.70;;;;;;;14.71;64.25;100530.88;5067711;28;20036;-84
2021/05/09 01:39:59;;;;;;;8.65;6.25;;;;;;;14.69;64.28;100528.28;5070497;28;20055;-84
2021/05/09 01:42:26;;;;;;;10.45;6.95;;;;;;;14.38;65.62;100523.31;5069314;28;20476;-85
2021/05/09 01:44:55;;;;;;;10.50;7.03;;;;;;;14.37;65.63;100525.13;5068142;28;20037;-84
2021/05/09 01:47:22;;;;;;;12.15;6.65;;;;;;;14.37;65.68;100521.59;5068671;28;20513;-83
2021/05/09 01:49:50;;;;;;;10.88;6.82;;;;;;;14.67;64.77;100515.97;5070276;28;20039;-84
2021/05/09 01:52:17;;;;;;;9.90;5.53;;;;;;;14.73;64.40;100521.03;5070564;28;20017;-83
2021/05/09 01:54:44;;;;;;;11.60;6.88;;;;;;;14.72;64.51;100521.97;5072114;28;20110;-83
2021/05/09 01:57:11;;;;;;;10.43;6.10;;;;;;;14.69;64.45;100514.97;5070146;28;20021;-82
2021/05/09 01:59:38;;;;;;;9.48;6.35;;;;;;;14.66;64.72;100508.88;5072164;28;20028;-83
2021/05/09 02:02:05;;;;;;;9.80;5.95;;;;;;;14.72;64.59;100511.28;5073664;28;20086;-84
2021/05/09 02:04:31;;;;;;;9.57;5.13;;;;;;;14.71;64.70;100512.22;5070131;28;20025;-83
2021/05/09 02:06:58;;;;;;;11.35;6.05;;;;;;;14.68;64.48;100505.22;5069860;28;20392;-85
2021/05/09 02:09:25;;;;;;;7.38;6.45;;;;;;;14.67;64.64;100502.63;5070193;28;20056;-84
2021/05/09 02:11:51;;;;;;;10.02;5.75;;;;;;;14.65;64.60;100507.16;5069055;28;20028;-83
2021/05/09 02:14:18;;;;;;;9.35;6.63;;;;;;;14.58;64.94;100503.84;5073546;28;20024;-85
2021/05/09 02:16:45;;;;;;;14.20;6.53;;;;;;;14.60;64.87;100501.13;5073247;28;20029;-85
2021/05/09 02:19:11;;;;;;;9.68;5.70;;;;;;;14.60;64.71;100501.97;5071080;28;20021;-83
2021/05/09 02:21:38;;;;;;;9.15;5.88;;;;;;;14.62;64.60;100499.25;5073231;28;20029;-84
2021/05/09 02:24:05;;;;;;;11.43;6.50;;;;;;;14.58;64.71;100501.19;5073286;28;20112;-84
2021/05/09 02:26:32;;;;;;;8.43;5.60;;;;;;;14.56;64.70;100500.38;5072978;28;20036;-84
2021/05/09 02:28:58;;;;;;;8.82;5.32;;;;;;;14.52;64.58;100496.13;5073242;28;20024;-84
2021/05/09 02:31:25;;;;;;;11.57;6.13;;;;;;;14.43;64.91;100492.03;5073221;28;20051;-84
2021/05/09 02:33:52;;;;;;;9.85;7.13;;;;;;;14.49;64.82;100494.44;5071285;28;20028;-84
2021/05/09 02:36:18;;;;;;;10.60;6.30;;;;;;;14.43;65.14;100493.81;5071837;28;20046;-85
2021/05/09 02:38:45;;;;;;;9.52;6.38;;;;;;;14.46;64.75;100489.22;5073107;28;20033;-84
2021/05/09 02:41:12;;;;;;;7.35;5.78;;;;;;;14.43;64.81;100491.16;5070797;28;20036;-82
2021/05/09 02:43:38;;;;;;;7.65;5.60;;;;;;;14.41;64.98;100493.88;5072854;28;20029;-83
2021/05/09 02:46:05;;;;;;;7.45;5.90;;;;;;;14.40;64.89;100485.03;5072782;28;20032;-84
2021/05/09 02:48:32;;;;;;;10.13;6.75;;;;;;;14.08;65.99;100486.31;5083075;28;20025;-85
2021/05/09 02:50:58;;;;;;;10.77;6.68;;;;;;;14.06;66.38;100475.75;5072849;28;20025;-84
2021/05/09 02:53:25;;;;;;;9.32;5.60;;;;;;;14.05;66.49;100478.47;5071471;28;20082;-84
2021/05/09 02:55:52;;;;;;;8.13;5.95;;;;;;;14.30;65.65;100480.13;5070141;28;20377;-83
2021/05/09 02:58:18;;;;;;;8.63;5.57;;;;;;;14.28;65.22;100484.66;5072662;28;20106;-85
2021/05/09 03:00:45;;;;;;;10.43;6.18;;;;;;;14.32;65.57;100486.28;5072728;28;20027;-87
2021/05/09 03:03:12;;;;;;;10.65;5.78;;;;;;;14.34;65.57;100476.41;5069608;28;20025;-83
2021/05/09 03:05:38;;;;;;;8.95;5.95;;;;;;;14.38;64.92;100478.00;5072415;28;20111;-84
2021/05/09 03:08:05;;;;;;;8.88;5.55;;;;;;;14.37;65.10;100478.97;5072234;28;20033;-84
2021/05/09 03:10:33;;;;;;;8.63;5.45;;;;;;;14.30;65.37;100477.47;5070367;28;20032;-83
2021/05/09 03:13:00;;;;;;;9.07;5.97;;;;;;;14.31;65.27;100474.75;5071276;28;20488;-84
2021/05/09 03:15:27;;;;;;;8.43;6.18;;;;;;;14.33;65.06;100474.66;5072167;28;20487;-83
2021/05/09 03:17:53;;;;;;;7.75;5.68;;;;;;;14.34;65.33;100471.97;5072436;28;20025;-83
2021/05/09 03:20:20;;;;;;;10.57;5.70;;;;;;;14.06;66.23;100470.41;5072144;28;20372;-84
2021/05/09 03:22:51;;;;;;;8.20;5.25;;;;;;;14.02;66.04;100467.97;5072035;28;20495;-83
2021/05/09 03:25:18;;;;;;;9.45;5.22;;;;;;;13.95;66.00;100462.00;5071968;28;20043;-82
2021/05/09 03:27:44;;;;;;;9.50;6.35;;;;;;;13.94;66.12;100462.06;5071932;28;20024;-83
2021/05/09 03:30:11;;;;;;;10.40;5.82;;;;;;;13.92;65.93;100462.13;5070851;28;20078;-83
2021/05/09 03:32:38;;;;;;;10.40;5.40;;;;;;;13.83;66.13;100463.38;5071864;28;20028;-83
2021/05/09 03:35:08;;;;;;;12.98;6.15;;;;;;;13.79;66.07;100466.19;5071978;28;20081;-83
2021/05/09 03:37:36;;;;;;;10.55;7.40;;;;;;;13.69;66.23;100461.22;5070221;28;20391;-83
2021/05/09 03:40:05;;;;;;;10.98;6.40;;;;;;;13.67;65.88;100462.22;5072899;28;20029;-84
2021/05/09 03:42:31;;;;;;;8.50;6.53;;;;;;;13.56;66.32;100466.16;5072658;28;20245;-83
2021/05/09 03:44:58;;;;;;;10.63;6.35;;;;;;;13.53;66.41;100460.09;5071221;28;20029;-85
2021/05/09 03:47:26;;;;;;;9.98;6.90;;;;;;;13.48;66.44;100454.94;5073273;28;20365;-84
2021/05/09 03:49:54;;;;;;;13.25;6.63;;;;;;;13.50;66.66;100450.44;5073754;28;20025;-84
2021/05/09 03:52:21;;;;;;;12.50;7.60;;;;;;;13.47;66.15;100463.88;5073492;28;20056;-84
2021/05/09 03:54:48;;;;;;;10.52;6.82;;;;;;;13.44;66.33;100456.00;5073329;28;20074;-84
2021/05/09 03:57:14;;;;;;;10.80;6.63;;;;;;;13.45;66.49;100452.41;5073596;28;20024;-84
2021/05/09 03:59:41;;;;;;;11.95;6.55;;;;;;;13.45;66.81;100459.53;5073050;28;20020;-87
2021/05/09 04:02:08;;;;;;;10.98;6.80;;;;;;;13.43;67.15;100459.56;5073621;28;20097;-84
2021/05/09 04:04:34;;;;;;;10.18;6.57;;;;;;;13.42;66.76;100455.16;5073166;28;20028;-84
2021/05/09 04:07:01;;;;;;;8.50;7.05;;;;;;;13.45;66.92;100452.41;5073756;28;20021;-85
2021/05/09 04:09:27;;;;;;;11.68;7.03;;;;;;;13.50;67.30;100445.09;5073841;28;20032;-84
2021/05/09 04:11:53;;;;;;;12.23;6.30;;;;;;;13.55;66.61;100445.78;5064665;28;20036;-84
2021/05/09 04:14:20;;;;;;;12.23;6.20;;;;;;;13.57;66.83;100441.28;5073182;28;20028;-84
2021/05/09 04:16:46;;;;;;;11.07;6.20;;;;;;;13.63;66.69;100441.97;5072953;28;20025;-85
2021/05/09 04:19:13;;;;;;;8.88;6.57;;;;;;;13.64;66.84;100438.38;5073416;28;20098;-83
2021/05/09 04:21:40;;;;;;;9.43;6.07;;;;;;;13.68;66.50;100445.31;5072962;28;20082;-84
2021/05/09 04:24:08;;;;;;;12.02;6.35;;;;;;;13.68;67.10;100447.97;5071945;28;20051;-85
2021/05/09 04:26:35;;;;;;;9.63;6.15;;;;;;;13.74;66.16;100442.41;5073293;28;20032;-84
2021/05/09 04:29:02;;;;;;;13.48;7.75;;;;;;;13.78;66.64;100443.16;5072981;28;20471;-83
2021/05/09 04:31:28;;;;;;;11.50;5.90;;;;;;;13.83;66.79;100442.06;5073054;28;20078;-84
2021/05/09 04:33:55;;;;;;;12.25;6.65;;;;;;;13.82;66.97;100437.66;5072657;28;20387;-83
2021/05/09 04:36:21;;;;;;;10.32;6.80;;;;;;;13.88;66.77;100437.41;5072455;28;20040;-83
2021/05/09 04:38:47;;;;;;;11.82;6.65;;;;;;;13.92;66.51;100440.81;5072493;28;20042;-83
2021/05/09 04:41:14;;;;;;;9.68;6.90;;;;;;;13.99;66.60;100441.44;5072819;28;20082;-83
2021/05/09 04:43:40;;;;;;;10.55;6.28;;;;;;;14.02;66.62;100438.66;5072935;28;20451;-83
2021/05/09 04:46:07;;;;;;;9.70;6.78;;;;;;;14.08;66.57;100447.25;5072839;28;20476;-83
2021/05/09 04:48:33;;;;;;;8.10;5.63;;;;;;;14.13;66.73;100446.19;5072771;28;20093;-83
2021/05/09 04:51:00;;;;;;;10.25;7.03;;;;;;;14.14;66.48;100440.78;5072681;28;20024;-82
2021/05/09 04:53:29;;;;;;;9.30;6.40;;;;;;;14.54;65.47;100432.91;5073463;28;20089;-82
2021/05/09 04:55:57;;;;;;;9.85;6.47;;;;;;;14.57;65.14;100432.78;5072372;28;20103;-82
2021/05/09 04:58:25;;;;;;;12.93;6.25;;;;;;;14.54;65.47;100443.56;5072531;28;20597;-83
2021/05/09 05:00:53;;;;;;;9.32;5.85;;;;;;;14.67;65.12;100434.16;5073639;28;20044;-83
2021/05/09 05:03:20;;;;;;;9.82;6.03;;;;;;;14.73;65.20;100433.03;5074464;28;20139;-83
2021/05/09 05:05:47;;;;;;;10.18;6.32;;;;;;;14.75;65.02;100436.47;5072774;28;20036;-83
2021/05/09 05:08:14;;;;;;;9.68;6.20;;;;;;;14.78;64.90;100439.03;5072542;28;20035;-83
2021/05/09 05:10:40;;;;;;;11.13;6.72;;;;;;;14.86;64.84;100436.88;5072430;28;20110;-82
2021/05/09 05:13:24;;;;;;;8.50;6.40;;;;;;;15.02;64.44;100437.06;5072443;28;20610;-83
2021/05/09 05:15:54;;;;;;;9.40;5.75;;;;;;;15.01;64.37;100426.47;5072701;28;20025;-83
2021/05/09 05:18:21;;;;;;;7.20;5.80;;;;;;;15.04;64.56;100435.19;5073267;28;20020;-83
2021/05/09 05:20:48;;;;;;;10.90;5.95;;;;;;;15.06;64.56;100428.91;5072331;28;20024;-83
2021/05/09 05:23:15;;;;;;;10.18;6.35;;;;;;;15.13;64.54;100428.56;5072035;28;20120;-83
2021/05/09 05:25:43;;;;;;;8.00;5.85;;;;;;;15.14;64.59;100432.97;5072163;28;20037;-84
2021/05/09 05:28:09;;;;;;;10.15;6.18;;;;;;;15.26;64.26;100420.00;5072340;28;20025;-83
2021/05/09 05:30:37;;;;;;;9.32;5.53;;;;;;;15.29;64.30;100419.84;5069495;28;20020;-84
2021/05/09 05:33:04;;;;;;;6.68;5.68;;;;;;;15.38;64.06;100424.75;5072367;28;20119;-84
2021/05/09 05:35:30;;;;;;;8.13;5.38;;;;;;;15.48;63.81;100410.03;5072099;28;20097;-83
2021/05/09 05:37:57;;;;;;;10.00;5.10;;;;;;;15.49;63.89;100417.13;5072143;28;20470;-83
2021/05/09 05:40:24;;;;;;;9.32;4.97;;;;;;;15.59;63.32;100411.31;5071978;28;20527;-83
2021/05/09 05:42:51;;;;;;;10.15;5.82;;;;;;;15.61;63.57;100404.13;5072246;28;20040;-83
2021/05/09 05:45:18;;;;;;;7.63;5.22;;;;;;;15.73;63.29;100400.84;5071961;28;20043;-84
2021/05/09 05:47:45;;;;;;;8.00;5.55;;;;;;;15.76;63.17;100392.69;5073933;28;20031;-83
2021/05/09 05:50:12;;;;;;;9.57;6.60;;;;;;;15.84;63.26;100395.88;5075926;28;20098;-84
2021/05/09 05:52:38;;;;;;;7.85;5.95;;;;;;;15.85;63.26;100392.28;5075769;28;20028;-83
2021/05/09 05:55:06;;;;;;;8.52;5.97;;;;;;;15.91;63.17;100391.09;5076317;28;20045;-83
2021/05/09 05:57:32;;;;;;;13.02;6.88;;;;;;;15.91;63.44;100391.09;5075833;28;20035;-84
2021/05/09 05:59:59;;;;;;;8.10;5.85;;;;;;;15.89;63.37;100386.75;5076365;28;20356;-84
2021/05/09 06:02:25;;;;;;;10.10;6.85;;;;;;;15.95;63.20;100378.44;5075957;28;20089;-84
2021/05/09 06:04:51;;;;;;;11.30;6.88;;;;;;;15.96;63.37;100388.19;5075508;28;20032;-84
2021/05/09 06:07:18;;;;;;;8.68;7.00;;;;;;;16.00;63.34;100396.00;5075401;28;20422;-84
2021/05/09 06:09:45;;;;;;;11.15;6.43;;;;;;;16.06;63.09;100389.44;5076275;28;20021;-83
2021/05/09 06:12:11;;;;;;;9.50;6.35;;;;;;;16.09;63.21;100385.78;5075471;28;20353;-85
2021/05/09 06:14:37;;;;;;;12.27;6.68;;;;;;;16.10;63.05;100377.69;5075180;28;20025;-84
2021/05/09 06:17:04;;;;;;;9.35;6.28;;;;;;;16.18;62.93;100385.31;5075676;28;20166;-84
2021/05/09 06:19:30;;;;;;;9.55;6.53;;;;;;;16.23;63.05;100385.09;5075519;28;20043;-84
2021/05/09 06:21:56;;;;;;;9.35;6.47;;;;;;;16.27;62.87;100370.63;5075377;28;20107;-84
2021/05/09 06:24:23;;;;;;;11.07;7.45;;;;;;;16.32;62.69;100371.25;5075982;28;20083;-84
2021/05/09 06:26:49;;;;;;;11.02;6.18;;;;;;;16.38;62.52;100370.91;5075405;28;20032;-83
2021/05/09 06:29:16;;;;;;;11.57;6.30;;;;;;;16.41;62.37;100362.75;5075807;28;20037;-85
2021/05/09 06:31:42;;;;;;;9.45;6.50;;;;;;;16.48;62.47;100361.47;5074346;28;20028;-84
2021/05/09 06:34:09;;;;;;;8.98;6.13;;;;;;;16.54;62.07;100368.31;5075478;28;20036;-85
2021/05/09 06:36:35;;;;;;;8.32;6.00;;;;;;;16.56;62.04;100368.22;5075097;28;20116;-84
2021/05/09 06:39:04;;;;;;;8.00;5.85;;;;;;;16.64;61.89;100382.06;5074966;28;20082;-83
2021/05/09 06:41:32;;;;;;;9.55;6.15;;;;;;;16.65;61.88;100378.47;5074062;28;20518;-85
2021/05/09 06:44:00;;;;;;;8.68;5.70;;;;;;;16.72;62.02;100379.84;5074736;28;20032;-84
2021/05/09 06:46:26;;;;;;;7.50;5.88;;;;;;;16.76;61.49;100389.44;5075112;28;20090;-84
2021/05/09 06:48:53;;;;;;;10.07;5.82;;;;;;;16.76;61.67;100362.69;5077184;28;20032;-83
2021/05/09 06:51:20;;;;;;;8.27;5.05;;;;;;;16.83;61.83;100349.84;5079598;28;20682;-85
2021/05/09 06:53:47;;;;;;;8.60;5.55;;;;;;;16.89;61.61;100352.19;5081067;28;20375;-86
2021/05/09 06:56:13;;;;;;;9.18;6.07;;;;;;;16.87;61.90;100359.41;5080018;28;20025;-83
2021/05/09 06:58:41;;;;;;;7.00;5.28;;;;;;;16.93;61.38;100355.59;5079430;28;20037;-84
2021/05/09 07:01:07;;;;;;;7.20;5.63;;;;;;;16.97;61.19;100354.47;5075001;28;20029;-84
2021/05/09 07:03:34;;;;;;;7.45;5.20;;;;;;;17.01;61.45;100361.41;5074833;28;20055;-83
2021/05/09 07:06:00;;;;;;;7.78;5.65;;;;;;;17.09;61.29;100348.44;5075099;28;20039;-84
2021/05/09 07:08:26;;;;;;;8.63;5.63;;;;;;;17.20;61.46;100344.31;5075000;28;20039;-84
2021/05/09 07:10:52;;;;;;;9.13;6.13;;;;;;;17.41;61.04;100324.38;5075086;28;20037;-83
2021/05/09 07:13:19;;;;;;;5.72;5.05;;;;;;;17.62;60.92;100324.09;5074553;28;20020;-84
2021/05/09 07:15:46;;;;;;;6.70;5.75;;;;;;;17.80;60.72;100306.06;5074274;28;20029;-83
2021/05/09 07:18:15;;;;;;;8.57;5.35;;;;;;;18.02;60.45;100310.19;5073608;28;20025;-84
2021/05/09 07:20:45;;;;;;;10.55;5.20;;;;;;;18.28;60.38;100308.63;5074560;28;20037;-85
2021/05/09 07:23:13;;;;;;;9.77;5.53;;;;;;;18.52;60.26;100308.06;5073592;28;20044;-84
2021/05/09 07:25:40;;;;;;;9.07;5.47;;;;;;;18.71;59.84;100299.72;5072676;28;20046;-84
2021/05/09 07:28:12;;;;;;;7.20;4.68;;;;;;;18.89;59.19;100297.69;5074654;28;20024;-83
2021/05/09 07:30:40;;;;;;;8.30;5.03;;;;;;;18.96;58.97;100296.38;5072354;28;20070;-85
2021/05/09 07:33:08;;;;;;;7.82;4.85;;;;;;;19.17;58.52;100288.75;5073659;28;20043;-83
2021/05/09 07:35:35;;;;;;;6.95;4.70;;;;;;;19.30;58.36;100287.97;5073395;28;20438;-83
2021/05/09 07:38:03;;;;;;;5.28;4.55;;;;;;;19.47;57.64;100285.03;5073613;28;20086;-83
2021/05/09 07:40:30;;;;;;;6.43;4.38;;;;;;;19.60;57.71;100277.03;5072244;28;20032;-84
2021/05/09 07:42:56;;;;;;;7.03;4.95;;;;;;;19.78;57.32;100279.44;5073073;28;20024;-86
2021/05/09 07:45:23;;;;;;;4.85;4.00;;;;;;;19.98;57.15;100278.94;5071481;28;20033;-85
2021/05/09 07:47:50;;;;;;;7.65;3.58;;;;;;;20.08;57.08;100279.19;5072777;28;20031;-85
2021/05/09 07:50:19;;;;;;;6.57;3.85;;;;;;;20.13;56.64;100284.25;5072250;28;20032;-86
2021/05/09 07:52:48;;;;;;;10.13;6.45;;;;;;;20.24;56.00;100279.00;5070782;28;20029;-86
2021/05/09 07:55:15;;;;;;;5.47;3.55;;;;;;;20.36;55.81;100288.00;5071904;28;20032;-86
2021/05/09 07:57:43;;;;;;;5.38;3.67;;;;;;;20.49;55.74;100293.41;5073559;28;20028;-88
2021/05/09 08:00:14;;;;;;;5.38;3.53;;;;;;;20.63;55.36;100298.66;5073359;28;20387;-85
2021/05/09 08:02:42;;;;;;;6.28;4.25;;;;;;;20.75;54.99;100293.41;5074590;28;20073;-86
2021/05/09 08:05:09;;;;;;;6.38;3.03;;;;;;;20.93;54.56;100288.53;5072377;28;20052;-84
2021/05/09 08:07:47;;;;;;;4.03;3.00;;;;;;;21.08;54.50;100284.72;5071933;28;20100;-82
2021/05/09 08:10:13;;;;;;;5.78;3.42;;;;;;;21.15;54.07;100275.22;5070648;28;20064;-85
2021/05/09 08:12:39;;;;;;;5.90;3.38;;;;;;;21.27;53.71;100260.00;5072298;28;20029;-83
2021/05/09 08:15:06;;;;;;;6.93;3.60;;;;;;;21.34;53.61;100249.59;5070058;28;20056;-83
2021/05/09 08:17:32;;;;;;;5.60;3.63;;;;;;;21.34;53.14;100255.00;5070055;28;20017;-84
2021/05/09 08:20:05;;;;;;;5.10;3.08;;;;;;;21.41;52.44;100261.66;5071975;28;20058;-87
2021/05/09 08:22:34;;;;;;;4.60;3.10;;;;;;;21.51;52.76;100259.13;5069624;28;20036;-85
2021/05/09 08:25:02;;;;;;;4.40;3.40;;;;;;;21.53;52.89;100254.47;5071740;28;20024;-85
2021/05/09 08:27:32;;;;;;;6.05;3.17;;;;;;;21.53;52.63;100265.25;5070154;28;20025;-83
2021/05/09 08:29:59;;;;;;;5.53;3.75;;;;;;;21.55;52.09;100265.16;5074776;28;20039;-86
2021/05/09 08:32:27;;;;;;;5.88;3.53;;;;;;;21.44;52.22;100264.09;5073990;28;20036;-88
2021/05/09 08:34:54;;;;;;;4.20;2.90;;;;;;;21.61;51.66;100262.88;5072935;28;20017;-91
2021/05/09 08:37:20;;;;;;;7.72;3.42;;;;;;;21.53;51.62;100251.75;5072559;28;20029;-85
2021/05/09 08:39:47;;;;;;;4.90;2.95;;;;;;;21.54;51.20;100247.25;5072690;28;20116;-88
2021/05/09 08:42:16;;;;;;;4.82;3.42;;;;;;;21.58;51.17;100257.72;5072598;28;20498;-86
2021/05/09 08:44:46;;;;;;;4.72;3.20;;;;;;;21.49;51.39;100248.44;5072087;28;20086;-85
2021/05/09 08:47:14;;;;;;;6.18;3.70;;;;;;;21.55;51.43;100244.44;5070969;28;20024;-84
2021/05/09 08:49:41;;;;;;;5.28;3.53;;;;;;;21.65;51.59;100232.00;5073929;28;20052;-85
2021/05/09 08:52:09;;;;;;;3.67;3.15;;;;;;;21.86;51.35;100242.13;5072646;28;20036;-85
2021/05/09 08:54:36;;;;;;;3.78;3.25;;;;;;;22.09;50.83;100237.66;5072809;28;20029;-82
2021/05/09 08:57:04;;;;;;;4.53;3.22;;;;;;;22.04;50.14;100234.41;5073158;28;20037;-85
2021/05/09 08:59:31;;;;;;;3.83;3.40;;;;;;;22.30;50.18;100224.28;5069645;28;20534;-85
2021/05/09 09:01:58;;;;;;;4.97;3.72;;;;;;;22.39;50.04;100230.84;5073038;28;20063;-85
2021/05/09 09:04:25;;;;;;;4.10;3.10;;;;;;;22.56;50.22;100207.88;5073321;28;20036;-86
2021/05/09 09:06:54;;;;;;;7.53;3.90;;;;;;;22.61;50.11;100224.56;5072499;28;20089;-87
2021/05/09 09:09:23;;;;;;;4.40;3.10;;;;;;;22.80;49.53;100208.72;5073492;28;20036;-84
2021/05/09 09:14:28;;;;;;;4.38;3.58;;;;;;;22.91;49.76;100204.13;5066398;27;20426;-85
2021/05/09 09:17:15;;;;;;;5.82;3.40;;;;;;;23.23;49.74;100206.03;5060160;28;20059;-85
2021/05/09 09:25:42;;;;;;;5.50;3.78;;;;;;;23.78;48.74;100210.47;5118841;27;20361;-84
2021/05/09 09:28:09;;;;;;;4.22;3.75;;;;;;;23.85;48.20;100197.25;5083825;28;20025;-84
2021/05/09 09:30:50;;;;;;;7.20;4.25;;;;;;;24.14;47.70;100193.88;5090270;28;20058;-84
2021/05/09 09:33:17;;;;;;;5.28;4.53;;;;;;;24.17;47.59;100182.81;5082585;28;20024;-85
2021/05/09 09:35:45;;;;;;;5.90;3.97;;;;;;;24.26;47.32;100175.72;5090412;28;20127;-88
2021/05/09 09:38:32;;;;;;;5.00;3.88;;;;;;;24.66;46.74;100166.75;5080880;28;20082;-86
2021/05/09 09:46:51;;;;;;;6.05;4.35;;;;;;;24.91;47.14;100153.69;5053123;28;20407;-85
2021/05/09 09:49:22;;;;;;;4.45;3.88;;;;;;;25.03;46.33;100147.16;5044696;28;20131;-82
2021/05/09 09:51:53;;;;;;;4.18;3.33;;;;;;;25.05;46.35;100139.75;5048303;28;20146;-81
2021/05/09 09:54:41;;;;;;;4.88;3.75;;;;;;;25.22;45.93;100131.88;5043418;28;20038;-82
2021/05/09 09:57:12;;;;;;;5.70;4.10;;;;;;;25.11;46.03;100128.31;5022057;28;20123;-82
2021/05/09 09:59:39;;;;;;;7.13;3.80;;;;;;;25.22;46.41;100129.19;5026209;28;20053;-84
2021/05/09 10:02:07;;;;;;;4.32;3.70;;;;;;;25.30;45.40;100134.75;5034382;28;20033;-83
2021/05/09 10:04:34;;;;;;;5.82;3.67;;;;;;;25.35;45.63;100133.28;5033531;28;20037;-83
2021/05/09 10:07:06;;;;;;;4.10;2.90;;;;;;;25.46;44.94;100140.47;5037775;28;20045;-84
2021/05/09 10:09:32;;;;;;;;;;;;;;;25.45;43.39;100146.88;5036443;28;20435;-82
2021/05/09 10:12:00;;;;;;;7.57;2.38;;;;;;;25.32;43.94;100140.84;5028761;28;19940;-83
2021/05/09 10:14:31;;;;;;;4.50;2.83;;;;;;;25.52;43.86;100141.72;5028972;28;20105;-82
2021/05/09 10:16:58;;;;;;;3.35;2.40;;;;;;;25.56;44.10;100132.31;5027591;28;20029;-87
2021/05/09 10:19:26;;;;;;;4.07;2.53;;;;;;;25.68;43.26;100119.41;5020020;28;20446;-88
2021/05/09 10:21:53;;;;;;;6.00;2.55;;;;;;;25.64;43.57;100115.31;5020955;28;20053;-83
2021/05/09 10:30:00;;;;;;;3.80;2.50;;;;;;;25.08;43.66;100119.63;5114968;27;20370;-83
2021/05/09 10:35:09;;;;;;;3.42;2.30;;;;;;;24.87;43.77;100132.31;5073035;27;20471;-87
2021/05/09 10:40:36;;;;;;;3.05;2.35;;;;;;;24.43;45.73;100157.97;5077932;27;20410;-85
2021/05/09 10:53:55;;;;;;;7.22;2.92;;;;;;;24.45;50.82;100051.25;5074218;28;20362;-84
2021/05/09 10:59:03;;;;;;;4.07;2.65;;;;;;;25.00;49.75;100055.31;5131314;27;20877;-89
2021/05/09 11:01:33;;;;;;;3.90;2.60;;;;;;;25.09;49.18;100043.59;5131084;28;20266;-84
2021/05/09 11:04:08;;;;;;;2.80;2.45;;;;;;;25.01;48.40;100059.69;5092636;28;20024;-84
2021/05/09 11:06:39;;;;;;;3.08;2.72;;;;;;;24.75;48.64;100048.59;5098331;28;20028;-85
2021/05/09 11:11:59;;;;;;;5.75;3.60;;;;;;;24.70;52.21;100008.41;5089362;27;20928;-83
2021/05/09 11:14:25;;;;;;;6.78;3.20;;;;;;;25.02;52.34;100004.50;5089529;28;20078;-83
2021/05/09 11:17:02;;;;;;;4.90;3.38;;;;;;;25.30;51.65;100008.16;5085401;28;20500;-83
2021/05/09 11:19:39;;;;;;;5.43;3.65;;;;;;;25.46;50.58;100029.28;5087931;28;20032;-84
2021/05/09 11:22:06;;;;;;;4.07;2.72;;;;;;;25.57;50.37;100043.66;5087371;28;20477;-84
2021/05/09 11:24:34;;;;;;;3.60;3.05;;;;;;;25.60;48.71;100049.63;5087792;28;20035;-84
2021/05/09 11:27:07;;;;;;;5.57;3.33;;;;;;;25.32;48.70;100056.81;5085732;28;20024;-84
2021/05/09 11:29:35;;;;;;;3.67;2.40;;;;;;;25.15;48.02;100063.84;5086397;28;20399;-85
2021/05/09 11:37:35;;;;;;;3.67;2.80;;;;;;;24.48;47.47;100090.72;5072843;27;20405;-83
2021/05/09 11:40:05;;;;;;;3.83;2.28;;;;;;;24.53;47.83;100118.25;5068395;28;20087;-85
2021/05/09 11:42:32;;;;;;;4.18;2.50;;;;;;;24.36;48.30;100152.25;5067535;28;20041;-83
2021/05/09 11:44:58;;;;;;;10.90;3.55;;;;;;;24.02;49.70;100126.31;5049237;28;20488;-83
2021/05/09 11:47:31;;;;;;;14.98;4.13;;;;;;;23.88;50.87;100105.88;5049302;28;20047;-83
2021/05/09 11:50:01;;;;;;;7.32;3.30;;;;;;;23.64;53.58;100154.88;5049753;28;20030;-84
2021/05/09 11:55:14;;;;;;;8.10;3.47;;;;;;;23.51;55.97;100159.59;5063095;27;20436;-83
2021/05/09 11:57:41;;;;;;;5.00;4.00;;;;;;;23.89;55.37;100134.63;5051616;28;20075;-83
2021/05/09 12:00:11;;;;;;;3.50;2.80;;;;;;;23.70;55.38;100137.22;5052103;28;20037;-83
2021/05/09 12:05:22;;;;;;;6.50;3.20;;;;;;;24.04;52.52;100088.34;5053553;28;20420;-83
2021/05/09 12:07:51;;;;;;;3.05;2.72;;;;;;;24.20;51.96;100094.06;5055383;28;20393;-83
2021/05/09 12:13:07;;;;;;;4.13;2.75;;;;;;;24.97;50.26;100093.50;5071456;27;20646;-84
2021/05/09 12:15:38;;;;;;;5.15;3.22;;;;;;;25.21;49.03;100087.66;5045331;28;20090;-82
2021/05/09 12:18:06;;;;;;;5.67;2.63;;;;;;;25.35;48.90;100070.94;5042783;28;20155;-81
2021/05/09 12:25:58;;;;;;;6.70;2.92;;;;;;;25.98;47.90;100034.22;5090097;27;20375;-80